Time;durP1;ratioP1;P1;durP2;ratioP2;P2;SDS_P1;SDS_P2;PMS_P1;PMS_P2;Temp;Humidity;BMP_temperature;BMP_pressure;BME280_temperature;BME280_humidity;BME280_pressure;Samples;Min_cycle;Max_cycle;Signal;HPM_P1;HPM_P2
2024/02/09 00:05:53;;;;;;;28.20;15.30;;;;;;;2.45;100.00;97234.01;271492;1276;22237;-84
2024/02/09 00:12:20;;;;;;;20.40;11.50;;;;;;;2.43;100.00;97225.40;271943;1276;22286;-85
2024/02/09 00:18:51;;;;;;;25.90;15.00;;;;;;;2.42;100.00;97230.64;272298;1276;22239;-85
2024/02/09 00:24:58;;;;;;;28.40;16.70;;;;;;;2.43;100.00;97230.11;272073;1277;22296;-84
2024/02/09 00:32:05;;;;;;;;;;;;;;;;;;;;;
2024/02/09 00:38:15;;;;;;;30.90;18.00;;;;;;;2.44;100.00;97242.41;271819;1276;22770;-85
2024/02/09 00:44:19;;;;;;;32.60;18.90;;;;;;;2.43;100.00;97238.91;272374;1280;22303;-85
2024/02/09 00:50:25;;;;;;;34.40;18.10;;;;;;;2.44;100.00;97238.16;272167;1280;22171;-86
2024/02/09 00:57:22;;;;;;;29.20;17.50;;;;;;;2.45;100.00;97248.67;272207;1283;23021;-86
2024/02/09 01:04:12;;;;;;;33.90;19.60;;;;;;;2.47;100.00;97247.85;271865;1276;22158;-86
2024/02/09 01:10:42;;;;;;;32.00;18.90;;;;;;;2.49;100.00;97253.95;269848;1277;22261;-86
2024/02/09 02:45:59;;;;;;;33.80;18.70;;;;;;;2.32;100.00;97209.90;272835;1281;22241;-85
2024/02/09 03:08:48;;;;;;;30.40;16.30;;;;;;;2.15;100.00;97212.88;271775;1287;22311;-86
2024/02/09 03:16:24;;;;;;;27.40;16.60;;;;;;;2.11;100.00;97207.64;271651;1280;22218;-85
2024/02/09 03:24:12;;;;;;;29.90;16.00;;;;;;;2.08;100.00;97200.50;272607;1281;22267;-86
2024/02/09 03:32:00;;;;;;;30.30;16.80;;;;;;;2.05;100.00;97197.98;271724;1273;22254;-86
2024/02/09 03:38:39;;;;;;;35.70;17.80;;;;;;;2.03;100.00;97210.14;272367;1273;22277;-86
2024/02/09 03:45:50;;;;;;;33.00;17.10;;;;;;;2.01;100.00;97205.64;271738;1286;23003;-85
2024/02/09 03:53:06;;;;;;;32.20;17.50;;;;;;;2.03;100.00;97203.27;271722;1280;22238;-86
2024/02/09 03:59:11;;;;;;;29.20;16.30;;;;;;;2.02;100.00;97205.34;272038;1278;22856;-85
2024/02/09 04:05:59;;;;;;;32.80;17.40;;;;;;;2.00;100.00;97207.70;272635;1281;22190;-85
2024/02/09 04:21:22;;;;;;;31.40;16.30;;;;;;;1.99;100.00;97211.16;272395;1281;22222;-86
2024/02/09 04:29:15;;;;;;;33.80;18.20;;;;;;;2.01;100.00;97210.95;270467;1273;22414;-86
2024/02/09 04:37:00;;;;;;;35.60;17.60;;;;;;;2.01;100.00;97206.02;270256;1283;22727;-85
2024/02/09 04:44:41;;;;;;;35.30;17.80;;;;;;;2.01;100.00;97190.30;271597;1281;23319;-85
2024/02/09 04:52:27;;;;;;;40.10;19.10;;;;;;;2.05;100.00;97183.16;272417;1273;22304;-85
2024/02/09 05:00:02;;;;;;;43.60;20.40;;;;;;;2.08;100.00;97171.89;272711;1276;23417;-85
2024/02/09 05:07:34;;;;;;;40.20;18.60;;;;;;;2.10;100.00;97170.53;272545;1275;22230;-86
2024/02/09 05:15:24;;;;;;;34.70;17.20;;;;;;;2.11;100.00;97167.23;272696;1282;22332;-85
2024/02/09 05:23:12;;;;;;;41.30;20.20;;;;;;;2.11;100.00;97169.25;271564;1280;22397;-85
2024/02/09 05:30:45;;;;;;;;;;;;;;;;;;;;;
2024/02/09 05:38:15;;;;;;;41.10;19.50;;;;;;;2.15;100.00;97167.67;272774;1280;22226;-85
2024/02/09 05:45:39;;;;;;;42.90;21.00;;;;;;;2.16;100.00;97164.37;272384;1284;22405;-85
2024/02/09 05:53:25;;;;;;;43.00;19.70;;;;;;;2.17;100.00;97163.38;271689;1276;23622;-85
2024/02/09 06:00:43;;;;;;;30.40;15.30;;;;;;;2.18;100.00;97172.34;271930;1277;21978;-84
2024/02/09 06:08:36;;;;;;;34.30;16.60;;;;;;;2.19;100.00;97173.21;271850;1284;22219;-86
2024/02/09 06:15:57;;;;;;;38.70;19.00;;;;;;;2.20;100.00;97180.25;272244;1276;23327;-86
2024/02/09 06:23:44;;;;;;;41.50;20.80;;;;;;;2.21;100.00;97177.48;269970;1273;24249;-86
2024/02/09 06:30:47;;;;;;;47.70;22.80;;;;;;;2.23;100.00;97182.21;272921;1278;22257;-86
2024/02/09 06:37:28;;;;;;;49.80;23.30;;;;;;;2.24;100.00;97186.48;272310;1273;24215;-86
2024/02/09 06:51:21;;;;;;;39.40;19.80;;;;;;;2.31;100.00;97188.96;272636;1273;23407;-85
2024/02/09 06:58:04;;;;;;;41.60;21.30;;;;;;;2.36;100.00;97194.73;272108;1274;22196;-85
2024/02/09 07:05:00;;;;;;;45.90;20.10;;;;;;;2.41;100.00;97200.44;272319;1264;22848;-86
2024/02/09 07:11:04;;;;;;;46.50;21.30;;;;;;;2.45;100.00;97201.83;272521;1281;22217;-86
2024/02/09 07:17:56;;;;;;;46.10;22.60;;;;;;;2.50;100.00;97203.83;272226;1265;23249;-86
2024/02/09 07:24:40;;;;;;;44.90;21.10;;;;;;;2.55;100.00;97203.19;272339;1276;23158;-87
2024/02/09 07:31:26;;;;;;;42.20;18.60;;;;;;;2.62;100.00;97202.13;272728;1280;22203;-86
2024/02/09 07:38:09;;;;;;;47.00;21.20;;;;;;;2.71;100.00;97199.93;272341;1273;22239;-87
2024/02/09 07:44:15;;;;;;;47.60;20.80;;;;;;;2.76;100.00;97204.64;272597;1277;22213;-85
2024/02/09 07:50:41;;;;;;;;;;;;;;;2.83;100.00;97206.73;272249;1274;22446;-86
2024/02/09 07:57:30;;;;;;;51.80;22.70;;;;;;;2.92;100.00;97204.61;270083;1273;2825334;-86
2024/02/09 08:04:05;;;;;;;50.80;22.60;;;;;;;2.99;100.00;97212.02;272110;1273;23309;-85
2024/02/09 08:10:32;;;;;;;49.30;23.40;;;;;;;3.03;100.00;97218.25;272198;1264;22349;-85
2024/02/09 08:16:34;;;;;;;47.50;22.40;;;;;;;3.08;100.00;97210.44;271924;1274;23016;-86
2024/02/09 08:22:43;;;;;;;49.70;22.30;;;;;;;3.14;100.00;97211.60;271940;1273;22334;-86
2024/02/09 08:28:47;;;;;;;50.10;22.30;;;;;;;3.27;100.00;97200.76;270801;1273;23854;-85
2024/02/09 08:34:50;;;;;;;49.20;23.40;;;;;;;3.43;100.00;97199.61;269748;1273;22604;-87
2024/02/09 08:40:52;;;;;;;44.80;22.50;;;;;;;3.62;100.00;97201.11;268795;1268;22587;-86
2024/02/09 08:46:55;;;;;;;50.40;24.80;;;;;;;3.75;100.00;97200.78;269185;1273;25556;-86
2024/02/09 08:52:57;;;;;;;54.70;24.50;;;;;;;3.84;100.00;97201.39;271427;1273;22205;-86
2024/02/09 08:59:13;;;;;;;51.30;23.90;;;;;;;3.89;100.00;97200.20;272048;1273;22886;-86
2024/02/09 09:05:15;;;;;;;58.10;26.00;;;;;;;3.96;100.00;97199.65;272009;1273;22681;-87
2024/02/09 09:11:37;;;;;;;48.50;24.00;;;;;;;4.08;100.00;97205.15;271906;1273;23399;-87
2024/02/09 09:17:40;;;;;;;55.90;25.50;;;;;;;4.23;100.00;97200.09;271918;1273;23403;-87
2024/02/09 09:23:44;;;;;;;56.60;26.60;;;;;;;4.33;100.00;97198.52;272112;1273;22261;-86
2024/02/09 09:29:48;;;;;;;55.30;25.80;;;;;;;4.39;100.00;97189.05;272118;1273;22221;-87
2024/02/09 09:35:49;;;;;;;57.10;26.50;;;;;;;4.44;100.00;97185.98;272201;1273;22230;-89
2024/02/09 09:41:56;;;;;;;60.20;26.60;;;;;;;4.48;100.00;97180.35;272088;1274;22503;-87
2024/02/09 09:48:04;;;;;;;61.40;29.00;;;;;;;4.60;100.00;97177.17;272065;1273;22316;-89
2024/02/09 09:54:10;;;;;;;61.30;27.00;;;;;;;4.72;100.00;97170.41;272037;1273;22395;-87
2024/02/09 10:00:13;;;;;;;61.90;27.70;;;;;;;4.85;100.00;97164.90;272207;1273;22203;-87
2024/02/09 10:06:17;;;;;;;52.20;25.50;;;;;;;4.97;100.00;97160.84;271876;1273;23199;-87
2024/02/09 10:12:24;;;;;;;60.50;27.40;;;;;;;5.10;100.00;97151.05;271994;1270;22399;-87
2024/02/09 10:18:32;;;;;;;59.60;30.10;;;;;;;5.31;100.00;97144.89;272091;1273;22281;-87
2024/02/09 10:24:34;;;;;;;56.10;28.20;;;;;;;5.56;100.00;97137.96;272085;1273;22306;-87
2024/02/09 10:30:38;;;;;;;60.70;29.50;;;;;;;5.80;100.00;97129.00;271988;1273;22400;-88
2024/02/09 10:36:42;;;;;;;55.40;26.40;;;;;;;6.11;100.00;97119.13;270530;1273;22601;-88
2024/02/09 10:43:08;;;;;;;67.20;28.90;;;;;;;6.40;100.00;97111.94;272021;1262;22406;-89
2024/02/09 10:49:10;;;;;;;59.30;29.70;;;;;;;6.46;100.00;97106.09;272151;1274;22326;-87
2024/02/09 10:55:23;;;;;;;57.50;27.20;;;;;;;6.53;100.00;97100.40;272230;1274;22189;-87
2024/02/09 11:01:26;;;;;;;59.20;29.10;;;;;;;6.60;100.00;97096.41;272265;1273;23341;-88
2024/02/09 11:07:28;;;;;;;57.70;27.90;;;;;;;6.70;100.00;97090.70;272275;1273;22242;-88
2024/02/09 11:13:34;;;;;;;57.90;27.60;;;;;;;6.93;100.00;97081.89;271901;1273;22335;-87
2024/02/09 11:19:38;;;;;;;57.80;27.50;;;;;;;7.14;100.00;97074.23;272022;1261;22329;-88
2024/02/09 11:25:45;;;;;;;55.50;28.60;;;;;;;7.21;100.00;97066.27;271791;1262;22696;-87
2024/02/09 11:31:52;;;;;;;52.60;26.50;;;;;;;7.24;100.00;97061.11;271811;1273;22467;-87
2024/02/09 11:38:19;;;;;;;57.40;28.30;;;;;;;7.32;100.00;97055.85;271268;1273;22532;-87
2024/02/09 11:44:32;;;;;;;58.00;29.10;;;;;;;7.38;100.00;97044.30;269830;1273;22207;-87
2024/02/09 11:50:36;;;;;;;57.40;27.60;;;;;;;7.39;100.00;97036.66;270768;1273;22554;-87
2024/02/09 11:56:45;;;;;;;54.40;27.90;;;;;;;7.35;100.00;97032.58;270664;1273;22549;-86
2024/02/09 12:02:49;;;;;;;56.10;29.00;;;;;;;7.40;100.00;97035.48;271572;1273;22407;-89
2024/02/09 12:09:21;;;;;;;58.30;29.60;;;;;;;7.52;100.00;97026.60;272039;1273;22207;-87
2024/02/09 12:15:23;;;;;;;63.40;29.90;;;;;;;7.62;100.00;97019.83;271753;1273;22558;-88
2024/02/09 12:21:30;;;;;;;53.10;28.70;;;;;;;7.65;100.00;97021.52;271927;1273;22177;-87
2024/02/09 12:27:32;;;;;;;42.60;21.00;;;;;;;7.55;100.00;97024.64;271876;1274;23149;-87
2024/02/09 12:33:57;;;;;;;61.70;30.50;;;;;;;7.44;100.00;97031.88;271835;1273;23287;-87
2024/02/09 12:40:04;;;;;;;64.90;30.70;;;;;;;7.40;100.00;97020.25;271890;1273;22178;-89
2024/02/09 12:46:06;;;;;;;59.80;31.60;;;;;;;7.43;100.00;97023.17;271962;1274;22496;-88
2024/02/09 12:52:14;;;;;;;60.00;30.50;;;;;;;7.42;100.00;97031.98;271732;1272;22738;-90
2024/02/09 12:58:19;;;;;;;62.00;31.10;;;;;;;7.43;100.00;97026.14;271931;1274;22373;-88
2024/02/09 13:04:40;;;;;;;65.60;31.20;;;;;;;7.48;100.00;97022.68;271862;1273;23170;-86
2024/02/09 13:10:42;;;;;;;69.60;32.50;;;;;;;7.51;100.00;97029.80;272010;1273;22527;-86
2024/02/09 13:16:44;;;;;;;72.90;32.30;;;;;;;7.51;100.00;97024.20;271882;1268;22377;-87
2024/02/09 13:22:48;;;;;;;58.50;30.30;;;;;;;7.47;100.00;97035.91;272050;1274;22356;-86
2024/02/09 13:28:50;;;;;;;59.20;29.80;;;;;;;7.39;100.00;97036.12;271894;1270;22224;-87
2024/02/09 13:34:52;;;;;;;61.20;29.70;;;;;;;7.28;100.00;97036.20;271945;1273;22373;-87
2024/02/09 13:40:54;;;;;;;60.30;30.10;;;;;;;7.07;100.00;97040.55;271933;1273;22213;-87
2024/02/09 13:46:56;;;;;;;57.20;29.70;;;;;;;6.95;100.00;97044.81;271854;1274;22491;-87
2024/02/09 13:52:58;;;;;;;62.40;28.80;;;;;;;6.83;100.00;97046.29;271898;1274;22298;-88
2024/02/09 13:59:01;;;;;;;59.00;31.40;;;;;;;6.76;100.00;97039.87;271895;1273;22276;-87
2024/02/09 14:05:14;;;;;;;62.90;30.90;;;;;;;6.71;100.00;97036.16;271976;1273;22415;-86
2024/02/09 14:11:18;;;;;;;64.40;31.50;;;;;;;6.71;100.00;97033.37;271948;1274;22326;-87
2024/02/09 14:17:21;;;;;;;69.40;31.10;;;;;;;6.68;100.00;97035.17;271820;1273;22915;-86
2024/02/09 14:23:49;;;;;;;63.30;31.00;;;;;;;6.66;100.00;97031.76;271880;1274;22345;-87
2024/02/09 14:30:32;;;;;;;63.00;32.30;;;;;;;6.64;100.00;97026.10;271990;1271;23745;-88
2024/02/09 14:36:34;;;;;;;62.80;32.20;;;;;;;6.60;100.00;97028.69;271976;1274;22302;-88
2024/02/09 14:42:36;;;;;;;64.80;32.50;;;;;;;6.54;100.00;97031.28;270744;1274;22392;-87
2024/02/09 14:48:38;;;;;;;70.50;34.10;;;;;;;6.50;100.00;97026.94;271943;1274;22297;-88
2024/02/09 14:54:41;;;;;;;70.90;34.30;;;;;;;6.45;100.00;97013.23;271801;1264;22229;-88
2024/02/09 15:00:52;;;;;;;66.60;32.30;;;;;;;6.41;100.00;97004.77;271930;1273;23474;-87
2024/02/09 15:07:27;;;;;;;72.60;34.00;;;;;;;6.41;100.00;97002.67;271790;1274;23736;-88
2024/02/09 15:13:33;;;;;;;79.70;38.40;;;;;;;6.39;100.00;97005.71;271798;1273;22459;-87
2024/02/09 15:19:36;;;;;;;67.70;34.60;;;;;;;6.32;100.00;97008.70;271792;1275;22176;-88
2024/02/09 15:25:37;;;;;;;67.50;32.70;;;;;;;6.21;100.00;97012.46;271869;1272;22511;-87
2024/02/09 15:31:40;;;;;;;67.80;32.00;;;;;;;6.13;100.00;97017.30;272115;1273;22202;-87
2024/02/09 15:37:45;;;;;;;71.60;33.40;;;;;;;6.05;100.00;97017.70;272017;1274;22335;-90
2024/02/09 15:43:47;;;;;;;70.70;31.00;;;;;;;6.00;100.00;97020.83;271873;1274;22338;-87
2024/02/09 15:49:49;;;;;;;80.90;35.40;;;;;;;5.90;100.00;97018.29;270767;1274;22424;-88
2024/02/09 15:55:52;;;;;;;94.80;40.70;;;;;;;5.79;100.00;97008.05;271786;1273;23493;-86
2024/02/09 16:01:55;;;;;;;91.80;42.00;;;;;;;5.63;100.00;97007.98;271833;1271;22462;-87
2024/02/09 16:07:57;;;;;;;89.10;41.60;;;;;;;5.52;100.00;97007.99;271762;1273;23293;-87
2024/02/09 16:14:02;;;;;;;92.10;44.50;;;;;;;5.44;100.00;97005.29;271755;1274;23829;-87
2024/02/09 16:20:08;;;;;;;86.10;37.90;;;;;;;5.36;100.00;97004.67;271592;1273;23756;-88
2024/02/09 16:26:11;;;;;;;86.60;39.10;;;;;;;5.25;100.00;97013.74;271798;1275;23679;-87
2024/02/09 16:32:14;;;;;;;82.40;38.00;;;;;;;5.22;100.00;97016.84;271968;1275;23475;-89
2024/02/09 16:38:16;;;;;;;79.00;35.60;;;;;;;5.14;100.00;97023.04;271952;1274;23019;-87
2024/02/09 16:44:23;;;;;;;95.90;44.40;;;;;;;5.05;100.00;97026.29;271219;1274;22245;-87
2024/02/09 16:50:26;;;;;;;99.40;43.30;;;;;;;4.99;100.00;97031.23;270113;1274;22564;-87
2024/02/09 16:56:28;;;;;;;82.80;38.00;;;;;;;4.93;100.00;97039.75;269396;1274;22598;-87
2024/02/09 17:02:31;;;;;;;82.80;38.80;;;;;;;4.88;100.00;97049.41;271605;1274;22333;-88
2024/02/09 17:08:52;;;;;;;83.80;39.40;;;;;;;4.75;100.00;97053.89;271843;1274;22503;-86
2024/02/09 17:14:56;;;;;;;85.00;37.20;;;;;;;4.61;100.00;97057.48;271840;1274;22402;-86
2024/02/09 17:21:19;;;;;;;87.80;40.30;;;;;;;4.54;100.00;97061.09;271858;1275;22427;-86
2024/02/09 17:27:26;;;;;;;81.60;38.30;;;;;;;4.50;100.00;97052.56;271816;1274;22258;-87
2024/02/09 17:33:28;;;;;;;91.80;43.10;;;;;;;4.53;100.00;97048.32;272024;1274;23094;-86
2024/02/09 17:39:31;;;;;;;80.20;37.20;;;;;;;4.47;100.00;97045.59;271992;1273;22524;-86
2024/02/09 17:45:35;;;;;;;95.10;42.00;;;;;;;4.39;100.00;97039.13;272080;1275;22334;-87
2024/02/09 17:51:37;;;;;;;96.00;42.70;;;;;;;4.27;100.00;97037.38;271944;1274;22156;-87
2024/02/09 17:57:38;;;;;;;123.20;41.20;;;;;;;4.17;100.00;97036.48;272060;1275;22253;-86
2024/02/09 18:03:44;;;;;;;126.30;43.20;;;;;;;4.11;100.00;97026.00;264457;1275;10002078;-86
2024/02/09 18:09:52;;;;;;;127.70;39.50;;;;;;;4.06;100.00;97021.41;271773;1273;22204;-88
2024/02/09 18:15:58;;;;;;;119.00;45.00;;;;;;;3.97;100.00;97020.98;271724;1274;22409;-86
2024/02/09 18:22:19;;;;;;;80.00;36.20;;;;;;;3.86;100.00;97032.20;271658;1275;23780;-87
2024/02/09 18:28:45;;;;;;;102.90;40.00;;;;;;;3.76;100.00;97034.92;272005;1274;22391;-85
2024/02/09 18:34:52;;;;;;;89.10;34.80;;;;;;;3.65;100.00;97033.63;271917;1273;22278;-88
2024/02/09 18:40:55;;;;;;;85.30;37.80;;;;;;;3.56;100.00;97041.05;271959;1258;22385;-86
2024/02/09 18:46:57;;;;;;;93.40;38.20;;;;;;;3.49;100.00;97039.62;272009;1273;22227;-87
2024/02/09 18:53:03;;;;;;;82.50;36.70;;;;;;;3.45;100.00;97039.43;272003;1275;22231;-86
2024/02/09 18:59:56;;;;;;;103.90;41.80;;;;;;;3.43;100.00;97033.77;271949;1273;22499;-86
2024/02/09 19:05:59;;;;;;;98.80;38.20;;;;;;;3.34;100.00;97016.70;271955;1273;23454;-87
2024/02/09 19:12:01;;;;;;;91.70;39.10;;;;;;;3.25;100.00;97011.84;271841;1273;22197;-86
2024/02/09 19:18:29;;;;;;;88.00;43.90;;;;;;;3.22;100.00;97004.17;271636;1273;22234;-87
2024/02/09 19:24:31;;;;;;;92.30;44.80;;;;;;;3.16;100.00;97013.63;271794;1275;22330;-86
2024/02/09 19:30:54;;;;;;;82.20;40.80;;;;;;;3.10;100.00;97023.23;271936;1274;23555;-86
2024/02/09 19:37:19;;;;;;;93.00;41.40;;;;;;;3.08;100.00;97022.37;271974;1273;22415;-87
2024/02/09 19:44:35;;;;;;;73.00;33.50;;;;;;;2.98;100.00;97017.48;271895;1275;22461;-86
2024/02/09 19:50:51;;;;;;;139.90;46.30;;;;;;;2.80;100.00;97015.30;272121;1275;23187;-86
2024/02/09 19:56:55;;;;;;;80.30;31.80;;;;;;;2.70;100.00;97015.75;271726;1273;423199;-87
2024/02/09 20:02:57;;;;;;;96.10;43.30;;;;;;;2.66;100.00;97015.78;272029;1273;22367;-89
2024/02/09 20:09:00;;;;;;;107.10;45.10;;;;;;;2.63;100.00;97019.61;272064;1274;22479;-86
2024/02/09 20:15:06;;;;;;;95.80;43.40;;;;;;;2.55;100.00;97010.34;271948;1273;22313;-87
2024/02/09 20:21:10;;;;;;;75.40;37.50;;;;;;;2.46;100.00;97011.64;271933;1273;23404;-86
2024/02/09 20:27:13;;;;;;;80.80;39.70;;;;;;;2.41;100.00;97003.48;272024;1273;23415;-87
2024/02/09 20:33:19;;;;;;;79.60;38.00;;;;;;;2.33;100.00;97004.54;271975;1273;22912;-86
2024/02/09 20:39:21;;;;;;;99.30;44.50;;;;;;;2.19;100.00;97008.46;272109;1273;22433;-85
2024/02/09 20:45:22;;;;;;;97.80;45.60;;;;;;;2.11;100.00;96999.20;272009;1273;22389;-86
2024/02/09 20:51:27;;;;;;;104.30;47.60;;;;;;;2.08;100.00;96999.02;272196;1273;23335;-86
2024/02/09 20:57:32;;;;;;;149.50;61.90;;;;;;;2.06;100.00;97004.84;271903;1273;23260;-85
2024/02/09 21:03:36;;;;;;;160.00;67.50;;;;;;;2.02;100.00;97006.33;272188;1273;22420;-86
2024/02/09 21:09:48;;;;;;;131.60;56.90;;;;;;;2.04;100.00;97006.97;271412;1273;22539;-87
2024/02/09 21:15:51;;;;;;;128.40;58.00;;;;;;;2.05;100.00;97008.75;272040;1273;22433;-86
2024/02/09 21:21:53;;;;;;;128.70;58.00;;;;;;;2.05;100.00;97012.98;271872;1273;24927;-86
2024/02/09 21:27:55;;;;;;;162.30;68.60;;;;;;;2.02;100.00;97010.73;272151;1273;22403;-85
2024/02/09 21:33:58;;;;;;;146.70;65.30;;;;;;;1.90;100.00;97001.63;272129;1273;22329;-87
2024/02/09 21:40:06;;;;;;;146.40;67.10;;;;;;;1.88;100.00;96994.52;271999;1273;22190;-86
2024/02/09 21:46:07;;;;;;;154.40;70.80;;;;;;;1.90;100.00;96989.45;272140;1273;22607;-86
2024/02/09 21:52:19;;;;;;;162.50;69.40;;;;;;;1.92;100.00;96985.08;272064;1273;22217;-87
2024/02/09 21:58:24;;;;;;;160.40;75.20;;;;;;;1.87;100.00;96991.64;272146;1273;22233;-88
2024/02/09 22:04:27;;;;;;;151.80;71.90;;;;;;;1.85;100.00;96997.17;272071;1273;22098;-86
2024/02/09 22:10:30;;;;;;;167.80;81.50;;;;;;;1.89;100.00;96993.61;272164;1273;22321;-88
2024/02/09 22:16:34;;;;;;;163.10;76.50;;;;;;;1.99;100.00;96995.58;272153;1273;22269;-86
2024/02/09 22:22:38;;;;;;;159.60;75.00;;;;;;;2.09;100.00;96993.00;272196;1273;22235;-87
2024/02/09 22:28:40;;;;;;;173.70;83.70;;;;;;;2.14;100.00;96990.44;272220;1273;22315;-86
2024/02/09 22:35:11;;;;;;;176.30;91.30;;;;;;;2.17;100.00;96982.69;272140;1273;23521;-86
2024/02/09 22:41:19;;;;;;;174.00;87.90;;;;;;;2.21;100.00;96981.05;271809;1273;22220;-86
2024/02/09 22:47:22;;;;;;;169.10;88.40;;;;;;;2.29;100.00;96981.28;270614;1273;25383;-85
2024/02/09 22:53:27;;;;;;;167.30;84.60;;;;;;;2.33;100.00;96974.08;271974;1271;22962;-86
2024/02/09 22:59:29;;;;;;;151.50;76.50;;;;;;;2.35;100.00;96973.48;272272;1273;22297;-86
2024/02/09 23:05:40;;;;;;;142.80;69.10;;;;;;;2.37;100.00;96970.64;272290;1273;23010;-86
2024/02/09 23:11:44;;;;;;;115.30;61.30;;;;;;;2.41;100.00;96969.06;272303;1273;22333;-86
2024/02/09 23:17:47;;;;;;;126.80;69.00;;;;;;;2.42;100.00;96970.38;272125;1273;22400;-86
2024/02/09 23:23:49;;;;;;;130.10;69.20;;;;;;;2.44;100.00;96968.95;272344;1273;22847;-86
2024/02/09 23:29:51;;;;;;;111.00;59.30;;;;;;;2.50;100.00;96968.63;272153;1273;22352;-86
2024/02/09 23:35:54;;;;;;;121.00;62.10;;;;;;;2.57;100.00;96969.70;272318;1273;22944;-86
2024/02/09 23:42:18;;;;;;;91.80;48.80;;;;;;;2.66;100.00;96968.61;272373;1273;22206;-86
2024/02/09 23:48:21;;;;;;;99.20;51.90;;;;;;;2.75;100.00;96975.03;271911;1273;23361;-86
2024/02/09 23:54:23;;;;;;;99.80;53.50;;;;;;;2.81;100.00;96984.05;271333;1273;22233;-86
